KFEP

Albertus Airport

Freeport, Illinois, USA
METAR KFEP 242135Z AUTO 14011KT 10SM SCT034 OVC050 22/16 A2992 RMK AO2 T02220164
Observed Flight Rules
Sep-24 @ 21:35 UTC (24 minutes ago) Visual Flight Rules
Wind Visibility Clouds
140° at 11 knots 10 miles
  • Scattered at 3,400' AGL
  • Overcast at 5,000' AGL
Temperatures Readings
Current 22°C / 72°F
Dewpoint 16°C / 61°F
Humidity 69%
Altimeter 29.92" Hg
Pressure 1013 hPa
Elevation 262
METAR KFEP 242135Z AUTO 14011KT 10SM SCT034 OVC050 22/16 A2992 RMK AO2 T02220164
Observed Flight Rules
Sep-24 @ 21:35 UTC
(24 minutes ago)
VFR
Wind Visibility
140° at 11 knots 10 miles
Clouds
  • Scattered at 3,400' AGL
  • Overcast at 5,000' AGL
Temperature Dewpoint
22°C / 72°F 16°C / 61°F
Humidity Altimeter Pressure
69% 29.92" Hg 1013 hPa